createdAt,value
2022-11-24T00:01:06.419Z,46.73
2022-11-24T00:03:33.616Z,47.03
2022-11-24T00:06:11.177Z,44.13
2022-11-24T00:08:39.079Z,44.90
2022-11-24T00:11:10.338Z,41.38
2022-11-24T00:13:39.342Z,43.85
2022-11-24T00:16:08.178Z,42.33
2022-11-24T00:18:35.261Z,47.90
2022-11-24T00:21:02.256Z,43.33
2022-11-24T00:23:29.239Z,48.92
2022-11-24T00:25:56.227Z,44.40
2022-11-24T00:28:23.238Z,48.85
2022-11-24T00:30:50.337Z,40.45
2022-11-24T00:33:17.357Z,46.55
2022-11-24T00:35:44.397Z,50.50
2022-11-24T00:38:11.345Z,46.50
2022-11-24T00:40:38.366Z,47.20
2022-11-24T00:43:05.374Z,47.28
2022-11-24T00:45:32.427Z,52.03
2022-11-24T00:47:59.376Z,48.88
2022-11-24T00:50:26.384Z,51.30
2022-11-24T00:52:53.422Z,45.70
2022-11-24T00:55:20.478Z,48.10
2022-11-24T00:57:47.442Z,49.85
2022-11-24T01:00:14.958Z,45.38
2022-11-24T01:02:42.061Z,47.75
2022-11-24T01:05:09.249Z,49.40
2022-11-24T01:07:36.308Z,53.55
2022-11-24T01:10:03.357Z,47.25
2022-11-24T01:12:30.345Z,46.55
2022-11-24T01:14:57.261Z,50.63
2022-11-24T01:17:24.261Z,52.30
2022-11-24T01:19:51.617Z,50.92
2022-11-24T01:22:18.640Z,51.65
2022-11-24T01:24:46.016Z,52.85
2022-11-24T01:27:12.938Z,48.97
2022-11-24T01:29:39.907Z,50.22
2022-11-24T01:32:06.879Z,52.70
2022-11-24T01:34:34.049Z,54.17
2022-11-24T01:37:01.140Z,48.55
2022-11-24T01:39:28.120Z,47.70
2022-11-24T01:41:55.218Z,54.00
2022-11-24T01:44:26.863Z,64.22
2022-11-24T01:46:58.304Z,48.75
2022-11-24T01:49:36.144Z,51.25
2022-11-24T01:52:30.139Z,55.70
2022-11-24T01:54:58.905Z,52.88
2022-11-24T01:57:28.001Z,58.10
2022-11-24T01:59:57.488Z,55.08
2022-11-24T02:02:25.245Z,54.97
2022-11-24T02:04:52.306Z,50.63
2022-11-24T02:07:19.387Z,52.25
2022-11-24T02:10:01.179Z,55.97
2022-11-24T02:12:28.196Z,54.17
2022-11-24T02:14:55.867Z,53.92
2022-11-24T02:17:22.820Z,52.17
2022-11-24T02:19:53.856Z,50.60
2022-11-24T02:22:46.766Z,48.40
2022-11-24T02:25:36.183Z,53.90
2022-11-24T02:28:05.702Z,53.85
2022-11-24T02:30:32.696Z,55.53
2022-11-24T02:32:59.682Z,51.83
2022-11-24T02:35:27.657Z,54.58
2022-11-24T02:37:54.598Z,56.67
2022-11-24T02:40:25.938Z,60.08
2022-11-24T02:43:08.159Z,56.10
2022-11-24T02:45:35.177Z,54.03
2022-11-24T02:48:02.138Z,62.60
2022-11-24T02:50:29.135Z,61.28
2022-11-24T02:52:56.076Z,60.00
2022-11-24T02:55:23.863Z,49.57
2022-11-24T02:57:50.848Z,62.42
2022-11-24T03:00:18.504Z,58.10
2022-11-24T03:02:45.567Z,69.45
2022-11-24T03:05:12.741Z,55.38
2022-11-24T03:07:39.819Z,57.20
2022-11-24T03:10:07.057Z,60.95
2022-11-24T03:12:34.396Z,52.58
2022-11-24T03:15:02.578Z,55.47
2022-11-24T03:17:29.674Z,47.65
2022-11-24T03:20:01.455Z,53.93
2022-11-24T03:22:31.175Z,51.25
2022-11-24T03:24:58.240Z,60.22
2022-11-24T03:27:25.299Z,56.42
2022-11-24T03:29:52.272Z,60.17
2022-11-24T03:32:19.249Z,45.20
2022-11-24T03:34:46.175Z,57.08
2022-11-24T03:37:13.267Z,56.15
2022-11-24T03:39:40.243Z,51.95
2022-11-24T03:42:07.256Z,60.38
2022-11-24T03:44:34.516Z,56.13
2022-11-24T03:47:01.740Z,50.70
2022-11-24T03:49:28.716Z,57.55
2022-11-24T03:51:55.706Z,56.65
2022-11-24T03:54:22.665Z,58.95
2022-11-24T03:56:49.720Z,47.80
2022-11-24T03:59:17.202Z,52.42
2022-11-24T04:01:44.232Z,53.72
2022-11-24T04:04:12.076Z,46.65
2022-11-24T04:06:39.361Z,53.33
2022-11-24T04:09:06.414Z,55.30
2022-11-24T04:11:51.736Z,56.30
2022-11-24T04:14:19.656Z,55.08
2022-11-24T04:16:46.818Z,63.78
2022-11-24T04:19:13.784Z,56.38
2022-11-24T04:21:40.821Z,57.78
2022-11-24T04:24:07.879Z,51.55
2022-11-24T04:26:34.897Z,55.20
2022-11-24T04:29:01.842Z,58.80
2022-11-24T04:31:28.839Z,55.47
2022-11-24T04:33:55.843Z,66.80
2022-11-24T04:36:22.859Z,59.22
2022-11-24T04:39:25.613Z,63.40
2022-11-24T04:41:36.719Z,49.25
2022-11-24T04:44:03.707Z,59.05
2022-11-24T04:46:30.816Z,56.63
2022-11-24T04:48:57.821Z,55.95
2022-11-24T04:51:24.734Z,63.60
2022-11-24T04:53:51.698Z,52.28
2022-11-24T04:56:18.616Z,57.45
2022-11-24T04:58:48.960Z,52.87
2022-11-24T05:01:15.999Z,52.40
2022-11-24T05:03:43.079Z,49.38
2022-11-24T05:06:10.082Z,49.45
2022-11-24T05:08:37.054Z,47.42
2022-11-24T05:11:07.428Z,57.67
2022-11-24T05:13:34.567Z,54.45
2022-11-24T05:16:01.940Z,63.22
2022-11-24T05:18:29.145Z,55.78
2022-11-24T05:20:56.281Z,47.47
2022-11-24T05:23:23.234Z,48.83
2022-11-24T05:25:50.252Z,52.67
2022-11-24T05:28:17.484Z,47.53
2022-11-24T05:30:44.520Z,44.05
2022-11-24T05:33:24.890Z,46.35
2022-11-24T05:35:51.911Z,52.03
2022-11-24T05:38:18.902Z,42.20
2022-11-24T05:40:45.934Z,49.88
2022-11-24T05:43:13.331Z,42.30
2022-11-24T05:45:40.377Z,46.53
2022-11-24T05:48:08.974Z,44.10
2022-11-24T05:50:36.100Z,52.85
2022-11-24T05:53:07.654Z,46.97
2022-11-24T05:55:35.055Z,53.53
2022-11-24T05:58:03.434Z,45.03
2022-11-24T06:00:30.726Z,42.70
2022-11-24T06:02:58.147Z,39.95
2022-11-24T06:05:25.783Z,49.20
2022-11-24T06:07:52.753Z,44.45
2022-11-24T06:10:20.224Z,40.83
2022-11-24T06:12:47.319Z,44.58
2022-11-24T06:15:14.348Z,48.40
2022-11-24T06:17:41.183Z,49.55
2022-11-24T06:20:08.608Z,45.03
2022-11-24T06:22:35.516Z,40.45
2022-11-24T06:25:02.349Z,41.90
2022-11-24T06:27:29.246Z,44.78
2022-11-24T06:29:56.099Z,48.70
2022-11-24T06:32:24.288Z,43.70
2022-11-24T06:34:51.148Z,45.78
2022-11-24T06:37:18.064Z,46.97
2022-11-24T06:39:44.913Z,46.33
2022-11-24T06:42:11.831Z,46.08
2022-11-24T06:44:38.708Z,40.35
2022-11-24T06:47:05.713Z,45.33
2022-11-24T06:49:32.561Z,49.53
2022-11-24T06:51:59.443Z,50.95
2022-11-24T06:54:26.396Z,52.30
2022-11-24T06:56:57.561Z,51.28
2022-11-24T06:59:24.611Z,53.47
2022-11-24T07:01:51.462Z,48.15
2022-11-24T07:04:18.527Z,46.88
2022-11-24T07:06:45.408Z,47.33
2022-11-24T07:09:13.032Z,58.55
2022-11-24T07:11:40.243Z,56.97
2022-11-24T07:14:07.210Z,55.27
2022-11-24T07:16:34.278Z,53.33
2022-11-24T07:19:01.209Z,50.78
2022-11-24T07:21:28.329Z,61.83
2022-11-24T07:23:56.392Z,57.80
2022-11-24T07:26:23.527Z,51.47
2022-11-24T07:28:50.939Z,52.22
2022-11-24T07:31:19.771Z,56.13
2022-11-24T07:33:50.047Z,64.63
2022-11-24T07:36:17.116Z,64.20
2022-11-24T07:38:44.007Z,61.90
2022-11-24T07:41:11.648Z,73.05
2022-11-24T07:43:38.721Z,60.50
2022-11-24T07:46:06.791Z,52.53
2022-11-24T07:48:34.318Z,54.70
2022-11-24T07:51:04.709Z,56.77
2022-11-24T07:53:32.371Z,53.47
2022-11-24T07:56:00.569Z,56.53
2022-11-24T07:58:33.109Z,59.22
2022-11-24T08:01:00.647Z,52.00
2022-11-24T08:03:27.916Z,55.23
2022-11-24T08:06:22.456Z,64.18
2022-11-24T08:08:42.959Z,66.93
2022-11-24T08:11:14.243Z,62.20
2022-11-24T08:13:41.122Z,56.40
2022-11-24T08:16:09.859Z,55.07
2022-11-24T08:18:36.902Z,58.47
2022-11-24T08:21:03.989Z,56.95
2022-11-24T08:23:31.108Z,56.05
2022-11-24T08:26:03.142Z,54.13
2022-11-24T08:28:30.005Z,54.23
2022-11-24T08:31:07.730Z,60.28
2022-11-24T08:33:34.630Z,52.13
2022-11-24T08:36:08.947Z,57.65
2022-11-24T08:38:35.844Z,54.78
2022-11-24T08:41:07.487Z,54.63
2022-11-24T08:43:34.437Z,58.05
2022-11-24T08:46:02.247Z,53.63
2022-11-24T08:48:29.394Z,60.60
2022-11-24T08:50:57.064Z,54.67
2022-11-24T08:53:24.161Z,50.17
2022-11-24T08:55:51.161Z,52.22
2022-11-24T08:58:18.063Z,58.85
2022-11-24T09:00:44.956Z,48.45
2022-11-24T09:03:12.047Z,58.38
2022-11-24T09:05:54.464Z,51.70
2022-11-24T09:08:21.365Z,61.65
2022-11-24T09:10:48.387Z,49.92
2022-11-24T09:13:15.367Z,64.90
2022-11-24T09:15:42.257Z,56.75
2022-11-24T09:18:09.168Z,50.80
2022-11-24T09:20:36.267Z,55.83
2022-11-24T09:23:03.174Z,54.67
2022-11-24T09:25:30.012Z,49.03
2022-11-24T09:27:57.499Z,45.50
2022-11-24T09:30:24.497Z,48.97
2022-11-24T09:32:51.412Z,56.35
2022-11-24T09:35:18.244Z,53.55
2022-11-24T09:37:45.910Z,62.53
2022-11-24T09:40:14.357Z,55.65
2022-11-24T09:43:11.579Z,56.27
2022-11-24T09:46:12.008Z,54.97
2022-11-24T09:48:40.948Z,45.70
2022-11-24T09:51:12.305Z,48.65
2022-11-24T09:54:00.799Z,51.58
2022-11-24T09:56:32.789Z,52.90
2022-11-24T09:59:07.198Z,53.80
2022-11-24T10:01:37.919Z,59.67
2022-11-24T10:04:06.893Z,54.22
2022-11-24T10:07:00.911Z,47.65
2022-11-24T10:09:49.006Z,50.03
2022-11-24T10:12:53.389Z,58.72
2022-11-24T10:15:42.517Z,57.75
2022-11-24T10:18:24.586Z,50.15
2022-11-24T10:21:28.785Z,56.22
2022-11-24T10:24:12.916Z,48.60
2022-11-24T10:26:41.083Z,54.75
2022-11-24T10:29:27.024Z,57.78
2022-11-24T10:31:55.247Z,55.22
2022-11-24T10:34:51.351Z,50.65
2022-11-24T10:37:30.789Z,48.77
2022-11-24T10:40:59.585Z,45.72
2022-11-24T10:43:28.504Z,50.28
2022-11-24T10:45:59.712Z,54.78
2022-11-24T10:48:27.825Z,63.13
2022-11-24T10:51:26.527Z,62.63
2022-11-24T10:53:53.645Z,69.90
2022-11-24T10:56:20.484Z,65.05
2022-11-24T10:58:47.395Z,63.28
2022-11-24T11:01:14.363Z,68.85
2022-11-24T11:03:55.521Z,64.30
2022-11-24T11:06:26.146Z,64.72
2022-11-24T11:09:14.765Z,64.80
2022-11-24T11:11:43.085Z,67.57
2022-11-24T11:14:11.033Z,61.00
2022-11-24T11:16:52.303Z,69.27
2022-11-24T11:19:49.046Z,66.80
2022-11-24T11:22:30.428Z,59.00
2022-11-24T11:25:15.757Z,64.38
2022-11-24T11:27:42.722Z,62.88
2022-11-24T11:36:23.265Z,59.35
2022-11-24T11:38:50.133Z,64.38
2022-11-24T11:41:22.244Z,66.57
2022-11-24T11:43:51.482Z,58.93
2022-11-24T11:46:18.519Z,54.67
2022-11-24T11:48:47.079Z,65.80
2022-11-24T11:51:33.012Z,64.53
2022-11-24T11:54:26.188Z,55.30
2022-11-24T11:57:11.770Z,59.20
2022-11-24T12:00:18.349Z,54.70
2022-11-24T12:03:15.643Z,59.58
2022-11-24T12:06:04.199Z,53.72
2022-11-24T12:12:17.231Z,56.57
2022-11-24T12:15:25.226Z,58.15
2022-11-24T12:17:55.676Z,60.60
2022-11-24T12:20:51.737Z,59.55
2022-11-24T12:23:36.825Z,54.67
2022-11-24T12:26:24.834Z,53.57
2022-11-24T12:29:00.426Z,57.30
2022-11-24T12:31:39.485Z,59.65
2022-11-24T12:34:30.045Z,58.45
2022-11-24T12:37:19.841Z,62.72
2022-11-24T12:39:55.811Z,54.63
2022-11-24T12:43:13.541Z,59.22
2022-11-24T12:45:59.338Z,58.55
2022-11-24T12:48:35.725Z,59.20
2022-11-24T12:51:04.109Z,56.10
2022-11-24T12:53:34.423Z,62.47
2022-11-24T12:56:14.809Z,63.30
2022-11-24T12:58:41.665Z,61.72
2022-11-24T13:01:16.118Z,66.57
2022-11-24T13:04:05.430Z,56.80
2022-11-24T13:06:37.980Z,63.83
2022-11-24T13:09:09.532Z,54.20
2022-11-24T13:11:47.291Z,66.63
2022-11-24T13:14:22.439Z,57.10
2022-11-24T13:17:21.153Z,58.67
2022-11-24T13:19:37.080Z,54.87
2022-11-24T13:22:07.897Z,61.30
2022-11-24T13:24:36.918Z,67.03
2022-11-24T13:27:27.780Z,61.40
2022-11-24T13:29:54.730Z,67.82
2022-11-24T13:32:21.562Z,56.20
2022-11-24T13:34:55.114Z,58.65
2022-11-24T13:37:34.985Z,62.67
2022-11-24T13:40:17.150Z,61.45
2022-11-24T13:43:00.434Z,58.38
2022-11-24T13:45:40.459Z,65.53
2022-11-24T13:48:19.868Z,68.82
2022-11-24T13:50:49.629Z,65.85
2022-11-24T13:53:47.683Z,65.47
2022-11-24T13:56:17.316Z,67.25
2022-11-24T13:58:44.461Z,68.50
2022-11-24T14:01:26.872Z,72.18
2022-11-24T14:04:30.505Z,68.63
2022-11-24T14:07:07.050Z,69.32
2022-11-24T14:09:53.122Z,59.55
2022-11-24T14:12:21.352Z,71.30
2022-11-24T14:14:52.293Z,75.65
2022-11-24T14:17:23.696Z,66.40
2022-11-24T14:19:52.360Z,65.50
2022-11-24T14:22:40.291Z,74.07
2022-11-24T14:25:08.802Z,72.05
2022-11-24T14:27:37.954Z,74.13
2022-11-24T14:30:17.606Z,70.25
2022-11-24T14:33:03.473Z,75.10
2022-11-24T14:35:31.867Z,65.90
2022-11-24T14:38:02.560Z,72.53
2022-11-24T14:40:51.404Z,69.80
2022-11-24T14:43:32.854Z,58.80
2022-11-24T14:46:07.367Z,72.05
2022-11-24T14:48:38.405Z,70.65
2022-11-24T14:51:15.774Z,57.57
2022-11-24T14:53:43.321Z,67.05
2022-11-24T14:56:21.917Z,60.40
2022-11-24T14:58:48.700Z,67.85
2022-11-24T15:01:21.551Z,68.45
2022-11-24T15:04:32.537Z,62.70
2022-11-24T15:07:24.186Z,63.67
2022-11-24T15:09:52.379Z,60.90
2022-11-24T15:12:39.533Z,61.80
2022-11-24T15:15:20.536Z,64.45
2022-11-24T15:17:51.606Z,74.43
2022-11-24T15:20:30.766Z,69.13
2022-11-24T15:23:22.174Z,74.22
2022-11-24T15:25:50.450Z,66.57
2022-11-24T15:28:17.237Z,64.25
2022-11-24T15:30:44.068Z,61.87
2022-11-24T15:33:15.731Z,71.13
2022-11-24T15:35:42.665Z,67.40
2022-11-24T15:38:09.917Z,74.30
2022-11-24T15:40:40.324Z,65.10
2022-11-24T15:43:29.009Z,79.47
2022-11-24T15:45:55.966Z,65.22
2022-11-24T15:48:22.721Z,81.00
2022-11-24T15:50:49.833Z,71.75
2022-11-24T15:53:25.807Z,81.15
2022-11-24T15:55:52.760Z,70.47
2022-11-24T15:58:19.624Z,71.15
2022-11-24T16:00:46.643Z,75.28
2022-11-24T16:03:45.282Z,77.95
2022-11-24T16:06:00.247Z,74.07
2022-11-24T16:08:27.201Z,70.10
2022-11-24T16:10:54.064Z,79.60
2022-11-24T16:13:20.868Z,84.68
2022-11-24T16:15:47.705Z,82.22
2022-11-24T16:18:14.584Z,76.60
2022-11-24T16:20:41.368Z,88.00
2022-11-24T16:23:08.145Z,70.00
2022-11-24T16:25:35.023Z,78.00
2022-11-24T16:28:01.860Z,86.72
2022-11-24T16:30:28.744Z,85.32
2022-11-24T16:32:55.528Z,74.50
2022-11-24T16:35:22.402Z,75.20
2022-11-24T16:37:49.265Z,74.32
2022-11-24T16:40:16.303Z,83.90
2022-11-24T16:42:43.121Z,77.35
2022-11-24T16:45:12.062Z,69.27
2022-11-24T16:47:40.196Z,67.85
2022-11-24T16:50:08.549Z,76.03
2022-11-24T16:52:35.392Z,70.57
2022-11-24T16:55:02.339Z,83.85
2022-11-24T16:57:29.413Z,80.10
2022-11-24T16:59:56.218Z,72.47
2022-11-24T17:02:23.296Z,70.55
2022-11-24T17:04:52.528Z,86.82
2022-11-24T17:07:20.471Z,76.03
2022-11-24T17:09:47.387Z,61.80
2022-11-24T17:12:14.200Z,88.97
2022-11-24T17:14:41.024Z,70.60
2022-11-24T17:17:07.878Z,87.20
2022-11-24T17:19:34.671Z,71.22
2022-11-24T17:22:01.549Z,75.27
2022-11-24T17:24:28.465Z,81.18
2022-11-24T17:26:55.320Z,82.32
2022-11-24T17:29:22.175Z,69.13
2022-11-24T17:31:49.173Z,87.35
2022-11-24T17:34:16.123Z,77.30
2022-11-24T17:36:45.942Z,73.38
2022-11-24T17:39:12.786Z,83.97
2022-11-24T17:41:39.683Z,72.25
2022-11-24T17:44:08.708Z,66.32
2022-11-24T17:46:37.202Z,63.13
2022-11-24T17:49:04.133Z,95.70
2022-11-24T17:51:31.014Z,70.93
2022-11-24T17:53:57.940Z,68.60
2022-11-24T17:56:27.196Z,89.68
2022-11-24T17:58:55.292Z,78.90
2022-11-24T18:01:22.672Z,91.00
2022-11-24T18:03:53.429Z,76.50
2022-11-24T18:06:21.147Z,75.13
2022-11-24T18:08:48.446Z,71.57
2022-11-24T18:11:27.350Z,87.33
2022-11-24T18:14:00.944Z,77.57
2022-11-24T18:16:30.563Z,61.05
2022-11-24T18:19:12.084Z,71.43
2022-11-24T18:21:42.391Z,71.22
2022-11-24T18:24:09.877Z,69.80
2022-11-24T18:26:36.923Z,71.88
2022-11-24T18:29:04.303Z,76.75
2022-11-24T18:31:32.387Z,64.45
2022-11-24T18:33:59.434Z,78.20
2022-11-24T18:36:30.293Z,81.23
2022-11-24T18:38:59.986Z,64.03
2022-11-24T18:41:27.298Z,92.28
2022-11-24T18:43:54.077Z,72.90
2022-11-24T18:46:20.945Z,81.80
2022-11-24T18:48:47.844Z,71.17
2022-11-24T18:51:14.881Z,80.38
2022-11-24T18:53:42.481Z,85.70
2022-11-24T18:56:12.462Z,83.35
2022-11-24T18:58:39.262Z,82.15
2022-11-24T19:01:09.682Z,78.20
2022-11-24T19:03:41.336Z,83.32
2022-11-24T19:06:11.739Z,91.50
2022-11-24T19:08:38.930Z,85.63
2022-11-24T19:11:05.977Z,73.43
2022-11-24T19:13:32.906Z,82.70
2022-11-24T19:16:00.442Z,80.50
2022-11-24T19:18:29.326Z,86.55
2022-11-24T19:20:57.552Z,73.45
2022-11-24T19:23:24.408Z,76.00
2022-11-24T19:25:51.215Z,81.70
2022-11-24T19:28:18.105Z,77.28
2022-11-24T19:30:45.478Z,77.28
2022-11-24T19:33:12.285Z,84.88
2022-11-24T19:35:39.029Z,75.75
2022-11-24T19:38:05.865Z,74.15
2022-11-24T19:40:32.681Z,73.60
2022-11-24T19:42:59.615Z,72.20
2022-11-24T19:45:26.543Z,78.72
2022-11-24T19:47:53.319Z,75.88
2022-11-24T19:50:20.247Z,62.00
2022-11-24T19:52:48.001Z,79.50
2022-11-24T19:55:15.003Z,77.80
2022-11-24T19:57:41.851Z,84.50
2022-11-24T20:00:09.764Z,60.78
2022-11-24T20:02:36.653Z,77.67
2022-11-24T20:05:03.608Z,82.10
2022-11-24T20:07:30.521Z,66.45
2022-11-24T20:09:57.423Z,70.00
2022-11-24T20:12:24.347Z,59.05
2022-11-24T20:14:51.133Z,71.93
2022-11-24T20:17:18.002Z,63.70
2022-11-24T20:19:44.961Z,85.80
2022-11-24T20:22:11.789Z,77.32
2022-11-24T20:24:38.863Z,75.13
2022-11-24T20:27:05.724Z,64.20
2022-11-24T20:29:33.994Z,67.40
2022-11-24T20:32:00.890Z,72.75
2022-11-24T20:34:28.540Z,80.15
2022-11-24T20:36:55.502Z,71.60
2022-11-24T20:39:25.589Z,73.93
2022-11-24T20:41:52.810Z,88.13
2022-11-24T20:44:21.424Z,73.68
2022-11-24T20:46:48.486Z,72.22
2022-11-24T20:49:19.122Z,75.22
2022-11-24T20:51:47.928Z,71.63
2022-11-24T20:54:16.121Z,76.22
2022-11-24T20:56:43.593Z,71.18
2022-11-24T20:59:12.622Z,56.97
2022-11-24T21:01:41.073Z,67.45
2022-11-24T21:04:09.603Z,80.67
2022-11-24T21:06:36.640Z,69.85
2022-11-24T21:09:04.437Z,65.90
2022-11-24T21:11:31.640Z,77.20
2022-11-24T21:13:58.646Z,74.28
2022-11-24T21:16:29.617Z,69.27
2022-11-24T21:18:58.028Z,77.65
2022-11-24T21:21:25.549Z,66.50
2022-11-24T21:23:52.442Z,76.40
2022-11-24T21:26:19.467Z,84.90
2022-11-24T21:28:47.099Z,71.90
2022-11-24T21:31:18.629Z,81.20
2022-11-24T21:33:47.006Z,73.15
2022-11-24T21:36:14.827Z,68.13
2022-11-24T21:38:42.765Z,67.82
2022-11-24T21:41:10.411Z,72.37
2022-11-24T21:43:37.423Z,72.75
2022-11-24T21:46:06.031Z,70.75
2022-11-24T21:48:33.433Z,79.85
2022-11-24T21:51:01.319Z,62.75
2022-11-24T21:53:30.846Z,60.03
2022-11-24T21:55:58.557Z,68.18
2022-11-24T21:58:25.693Z,84.95
2022-11-24T22:00:52.774Z,74.13
2022-11-24T22:03:19.621Z,59.28
2022-11-24T22:05:56.488Z,72.87
2022-11-24T22:08:23.817Z,68.55
2022-11-24T22:10:50.658Z,64.30
2022-11-24T22:13:17.474Z,60.75
2022-11-24T22:15:44.350Z,63.70
2022-11-24T22:18:11.168Z,72.03
2022-11-24T22:20:38.308Z,69.35
2022-11-24T22:23:05.151Z,68.15
2022-11-24T22:25:31.888Z,68.05
2022-11-24T22:27:58.627Z,68.43
2022-11-24T22:30:25.329Z,75.40
2022-11-24T22:32:53.358Z,75.32
2022-11-24T22:35:20.099Z,72.07
2022-11-24T22:37:46.852Z,82.70
2022-11-24T22:40:13.718Z,79.38
2022-11-24T22:42:40.416Z,68.83
2022-11-24T22:45:07.948Z,73.25
2022-11-24T22:47:34.688Z,69.38
2022-11-24T22:50:01.455Z,58.45
2022-11-24T22:52:28.185Z,65.40
2022-11-24T22:54:54.933Z,57.33
2022-11-24T22:57:21.680Z,57.70
2022-11-24T22:59:48.468Z,63.40
2022-11-24T23:02:15.229Z,58.90
2022-11-24T23:04:42.003Z,55.40
2022-11-24T23:07:09.730Z,56.77
2022-11-24T23:09:36.512Z,61.33
2022-11-24T23:12:03.406Z,68.13
2022-11-24T23:14:30.218Z,70.65
2022-11-24T23:16:57.012Z,60.83
2022-11-24T23:19:23.798Z,59.53
2022-11-24T23:21:50.632Z,61.67
2022-11-24T23:24:17.497Z,55.13
2022-11-24T23:26:44.297Z,58.58
2022-11-24T23:29:11.682Z,65.78
2022-11-24T23:31:40.329Z,60.33
2022-11-24T23:34:07.342Z,67.85
2022-11-24T23:36:34.156Z,70.38
2022-11-24T23:39:08.764Z,65.72
2022-11-24T23:41:35.599Z,70.55
2022-11-24T23:44:02.590Z,65.20
2022-11-24T23:46:29.425Z,69.47
2022-11-24T23:48:56.369Z,69.32
2022-11-24T23:51:30.498Z,69.55
2022-11-24T23:56:41.854Z,59.43
2022-11-24T23:59:10.318Z,78.28
